Time;durP1;ratioP1;P1;durP2;ratioP2;P2;SDS_P1;SDS_P2;PMS_P1;PMS_P2;Temp;Humidity;BMP_temperature;BMP_pressure;BME280_temperature;BME280_humidity;BME280_pressure;Samples;Min_cycle;Max_cycle;Signal;HPM_P1;HPM_P2
2022/07/02 04:02:39;;;;;;;15.50;8.38;;;11.20;99.90;;;;;;4990279;28;20051;-72
2022/07/02 04:05:06;;;;;;;12.93;8.02;;;11.10;99.90;;;;;;4994160;28;20508;-72
2022/07/02 04:07:31;;;;;;;9.00;6.10;;;11.20;99.90;;;;;;4994188;28;20110;-72
2022/07/02 04:09:57;;;;;;;9.70;7.68;;;11.20;99.90;;;;;;4994236;28;20088;-72
2022/07/02 04:12:22;;;;;;;20.08;8.63;;;11.20;99.90;;;;;;4994077;28;20026;-72
2022/07/02 04:14:48;;;;;;;11.73;7.53;;;11.20;99.90;;;;;;5018478;23;20085;-74
2022/07/02 04:17:13;;;;;;;12.68;7.57;;;11.20;99.90;;;;;;5015015;28;20050;-76
2022/07/02 04:19:39;;;;;;;11.90;7.78;;;11.30;99.90;;;;;;5017011;28;20046;-74
2022/07/02 04:22:04;;;;;;;12.98;9.23;;;11.20;99.90;;;;;;5017254;28;20507;-74
2022/07/02 04:24:30;;;;;;;15.65;8.88;;;11.20;99.90;;;;;;5015534;28;20113;-75
2022/07/02 04:26:56;;;;;;;12.45;8.90;;;11.20;99.90;;;;;;5015276;28;20101;-74
2022/07/02 04:29:22;;;;;;;13.95;8.93;;;11.30;99.90;;;;;;5015362;28;20523;-74
2022/07/02 04:31:47;;;;;;;10.80;8.70;;;11.30;99.90;;;;;;5016965;28;20036;-74
2022/07/02 04:34:13;;;;;;;10.73;7.68;;;11.30;99.90;;;;;;5016839;28;20038;-75
2022/07/02 04:36:39;;;;;;;9.07;6.88;;;11.40;99.90;;;;;;5016150;28;20037;-76
2022/07/02 04:39:05;;;;;;;11.07;8.48;;;11.40;99.90;;;;;;5015317;28;20038;-74
2022/07/02 04:41:31;;;;;;;11.90;7.18;;;11.40;99.90;;;;;;5016823;28;20093;-76
2022/07/02 04:43:57;;;;;;;9.68;6.45;;;11.50;99.90;;;;;;5016546;28;20089;-77
2022/07/02 04:46:23;;;;;;;14.45;8.80;;;11.40;99.90;;;;;;5016235;28;20816;-74
2022/07/02 04:48:49;;;;;;;15.77;10.70;;;11.40;99.90;;;;;;5016516;28;20034;-74
2022/07/02 04:51:15;;;;;;;12.88;8.05;;;11.50;99.90;;;;;;5016601;28;20046;-74
2022/07/02 04:53:40;;;;;;;14.23;9.18;;;11.60;99.90;;;;;;5015008;28;20031;-75
2022/07/02 04:56:06;;;;;;;12.90;8.38;;;11.60;99.90;;;;;;5014548;28;20081;-77
2022/07/02 04:58:32;;;;;;;11.38;8.15;;;11.60;99.90;;;;;;5016269;28;20105;-74
2022/07/02 05:00:57;;;;;;;15.73;9.75;;;11.60;99.90;;;;;;5016467;28;20507;-74
2022/07/02 05:03:23;;;;;;;17.23;11.20;;;11.60;99.90;;;;;;5016564;28;20045;-74
2022/07/02 05:05:48;;;;;;;15.82;9.73;;;11.70;99.90;;;;;;5016140;28;20105;-75
2022/07/02 05:08:14;;;;;;;14.63;10.30;;;11.80;99.90;;;;;;5016278;28;20034;-74
2022/07/02 05:10:40;;;;;;;11.32;8.57;;;11.90;99.90;;;;;;5014871;28;20133;-74
2022/07/02 05:13:06;;;;;;;10.93;7.38;;;12.00;99.90;;;;;;5016041;28;20113;-75
2022/07/02 05:15:32;;;;;;;12.85;8.10;;;12.10;99.90;;;;;;5015681;28;20044;-77
2022/07/02 05:17:57;;;;;;;11.43;8.07;;;12.10;99.90;;;;;;5014485;28;20033;-74
2022/07/02 05:20:23;;;;;;;13.15;8.35;;;12.20;99.90;;;;;;5015974;28;20049;-74
2022/07/02 05:22:49;;;;;;;12.13;8.95;;;12.30;99.90;;;;;;5016344;28;20030;-74
2022/07/02 05:25:14;;;;;;;12.98;8.60;;;12.40;99.90;;;;;;5015832;28;20065;-74
2022/07/02 05:27:40;;;;;;;11.15;7.90;;;12.50;99.90;;;;;;5015688;28;20392;-74
2022/07/02 05:30:06;;;;;;;12.48;8.32;;;12.60;99.90;;;;;;5016094;28;20061;-74
2022/07/02 05:32:31;;;;;;;9.57;6.82;;;12.60;99.90;;;;;;5014475;28;20404;-74
2022/07/02 05:34:57;;;;;;;9.10;6.70;;;12.70;99.90;;;;;;5015865;28;20045;-75
2022/07/02 05:37:22;;;;;;;10.50;6.40;;;12.80;99.90;;;;;;5014455;28;20586;-74
2022/07/02 05:39:48;;;;;;;8.88;6.80;;;12.90;99.90;;;;;;5015723;28;20041;-74
2022/07/02 05:42:13;;;;;;;10.60;7.15;;;13.00;99.90;;;;;;5014231;28;20036;-74
2022/07/02 05:44:39;;;;;;;7.55;5.53;;;12.90;99.90;;;;;;5015719;28;20472;-74
2022/07/02 05:47:04;;;;;;;7.18;5.88;;;13.10;99.90;;;;;;5014276;28;20117;-74
2022/07/02 05:49:30;;;;;;;6.28;5.40;;;13.20;99.90;;;;;;5015639;28;20045;-74
2022/07/02 05:51:56;;;;;;;9.00;5.50;;;13.20;99.90;;;;;;5015788;28;20484;-76
2022/07/02 05:54:21;;;;;;;8.93;5.32;;;13.20;99.90;;;;;;5015746;28;20047;-74
2022/07/02 05:56:47;;;;;;;6.72;5.80;;;13.40;99.90;;;;;;5015262;28;20034;-75
2022/07/02 05:59:12;;;;;;;7.60;5.88;;;13.50;99.90;;;;;;5015650;28;20043;-75
2022/07/02 06:01:38;;;;;;;6.90;5.63;;;13.60;99.90;;;;;;5015617;28;20030;-74
2022/07/02 06:04:04;;;;;;;7.03;5.60;;;13.70;99.90;;;;;;5015712;28;20048;-74
2022/07/02 06:09:14;;;;;;;6.00;4.50;;;13.80;99.90;;;;;;5016064;28;20039;-74
2022/07/02 06:11:39;;;;;;;6.82;4.40;;;13.90;99.90;;;;;;5015228;28;20444;-75
2022/07/02 06:14:05;;;;;;;7.00;3.70;;;14.00;99.90;;;;;;5015434;28;20066;-74
2022/07/02 06:16:30;;;;;;;6.60;4.10;;;14.00;99.90;;;;;;5015113;28;20117;-74
2022/07/02 06:18:56;;;;;;;3.83;3.40;;;14.10;99.90;;;;;;5013766;28;20125;-74
2022/07/02 06:21:22;;;;;;;4.40;3.53;;;14.20;99.90;;;;;;5015395;28;20093;-77
2022/07/02 06:23:47;;;;;;;6.70;3.60;;;14.30;99.90;;;;;;5015229;28;20823;-74
2022/07/02 06:26:13;;;;;;;5.68;2.90;;;14.40;99.90;;;;;;5014676;28;20042;-74
2022/07/02 06:28:38;;;;;;;6.53;3.55;;;14.50;99.90;;;;;;5015276;28;20050;-77
2022/07/02 06:31:03;;;;;;;4.65;2.90;;;14.60;99.90;;;;;;5015113;28;20038;-74
2022/07/02 06:33:29;;;;;;;3.55;2.70;;;14.70;99.90;;;;;;5013597;28;20026;-76
2022/07/02 06:35:55;;;;;;;2.78;2.30;;;14.90;99.90;;;;;;5014811;28;20472;-75
2022/07/02 06:38:21;;;;;;;2.92;2.20;;;15.00;99.90;;;;;;5013980;28;20045;-74
2022/07/02 06:40:46;;;;;;;2.97;2.70;;;15.10;99.90;;;;;;5014103;28;20042;-74
2022/07/02 06:43:12;;;;;;;5.25;2.40;;;15.30;99.90;;;;;;5015207;28;20037;-74
2022/07/02 06:45:37;;;;;;;4.53;2.40;;;15.40;99.90;;;;;;5013634;28;20038;-75
2022/07/02 06:48:03;;;;;;;4.93;2.30;;;15.50;99.90;;;;;;5015036;28;20034;-74
2022/07/02 06:50:29;;;;;;;4.00;2.40;;;15.70;99.90;;;;;;5015300;28;20242;-74
2022/07/02 06:52:54;;;;;;;2.70;2.13;;;15.90;99.90;;;;;;5015268;28;20062;-75
2022/07/02 06:55:20;;;;;;;3.17;2.28;;;16.00;99.90;;;;;;5012875;28;20121;-74
2022/07/02 06:57:46;;;;;;;2.45;1.90;;;16.10;99.90;;;;;;5014717;28;20058;-75
2022/07/02 07:00:12;;;;;;;2.08;1.90;;;16.20;99.90;;;;;;5014683;28;20483;-74
2022/07/02 07:02:38;;;;;;;2.03;1.80;;;16.40;99.90;;;;;;5015140;28;20042;-75
2022/07/02 07:05:04;;;;;;;4.53;1.70;;;16.50;99.90;;;;;;5014666;28;20131;-74
2022/07/02 07:07:31;;;;;;;3.08;1.90;;;16.60;99.90;;;;;;5014925;28;20041;-75
2022/07/02 07:09:56;;;;;;;2.03;1.60;;;16.80;99.90;;;;;;5013299;28;20508;-74
2022/07/02 07:12:22;;;;;;;2.85;1.77;;;17.00;99.90;;;;;;5013093;28;20114;-74
2022/07/02 07:14:48;;;;;;;2.03;1.42;;;17.30;99.90;;;;;;5012976;28;20084;-74
2022/07/02 07:17:13;;;;;;;2.38;1.73;;;17.40;99.90;;;;;;5014459;28;20034;-75
2022/07/02 07:19:39;;;;;;;5.45;1.67;;;17.60;99.90;;;;;;5014107;28;20034;-75
2022/07/02 07:22:04;;;;;;;1.73;1.50;;;17.80;99.90;;;;;;5014156;28;20492;-75
2022/07/02 07:24:30;;;;;;;4.82;1.42;;;18.00;99.90;;;;;;5014772;28;20527;-76
2022/07/02 07:26:57;;;;;;;1.90;1.42;;;18.30;99.90;;;;;;5013890;28;20104;-73
2022/07/02 07:29:23;;;;;;;2.28;1.20;;;18.50;99.90;;;;;;5012987;28;20133;-74
2022/07/02 07:31:49;;;;;;;2.08;1.35;;;18.70;99.90;;;;;;5014048;28;20031;-76
2022/07/02 07:34:14;;;;;;;1.50;1.35;;;19.00;99.90;;;;;;5014644;28;20049;-73
2022/07/02 07:36:40;;;;;;;1.63;1.02;;;19.10;99.90;;;;;;5014006;28;20039;-74
2022/07/02 07:39:06;;;;;;;2.38;1.20;;;19.30;99.90;;;;;;5014476;28;20125;-79
2022/07/02 07:41:32;;;;;;;2.10;1.20;;;19.60;99.90;;;;;;5013080;28;20034;-74
2022/07/02 07:43:58;;;;;;;2.35;1.02;;;19.80;99.90;;;;;;5014422;28;20161;-74
2022/07/02 07:46:24;;;;;;;3.80;1.48;;;20.00;99.90;;;;;;5014348;28;20046;-74
2022/07/02 07:48:50;;;;;;;1.95;0.90;;;20.30;99.90;;;;;;5017276;28;20432;-82
2022/07/02 07:51:17;;;;;;;2.97;1.17;;;20.60;99.90;;;;;;5017165;28;20057;-76
2022/07/02 07:53:43;;;;;;;2.05;0.98;;;20.80;99.90;;;;;;5018185;28;20058;-76
2022/07/02 07:56:09;;;;;;;1.90;1.10;;;21.10;99.90;;;;;;5015915;28;20046;-75
2022/07/02 07:58:35;;;;;;;1.88;0.90;;;21.40;99.90;;;;;;5018119;28;20458;-76
2022/07/02 08:01:01;;;;;;;1.73;0.82;;;21.50;99.90;;;;;;5017530;28;20089;-75
2022/07/02 08:03:26;;;;;;;1.90;0.98;;;21.80;99.90;;;;;;5016977;28;20038;-77
2022/07/02 08:05:54;;;;;;;0.80;0.70;;;22.10;99.90;;;;;;5017926;28;20069;-76
2022/07/02 08:08:21;;;;;;;1.77;0.93;;;22.20;99.90;;;;;;5017062;28;20949;-78
2022/07/02 08:10:46;;;;;;;1.40;0.90;;;22.30;99.90;;;;;;5020267;28;20494;-81
2022/07/02 08:13:12;;;;;;;1.23;0.80;;;22.40;99.90;;;;;;5020040;28;20126;-81
2022/07/02 08:15:38;;;;;;;1.25;0.80;;;22.60;99.90;;;;;;5020475;28;20043;-82
2022/07/02 08:18:03;;;;;;;3.35;1.02;;;22.80;99.60;;;;;;5018870;28;20472;-79
2022/07/02 08:20:29;;;;;;;1.95;0.80;;;22.90;99.50;;;;;;5020502;28;20046;-79
2022/07/02 08:22:54;;;;;;;1.48;0.73;;;22.90;99.40;;;;;;5027443;28;20222;-80
2022/07/02 08:25:20;;;;;;;4.30;0.93;;;23.20;98.70;;;;;;5043916;28;20041;-81
2022/07/02 08:27:46;;;;;;;1.67;0.90;;;23.40;97.40;;;;;;5043721;28;20030;-80
2022/07/02 08:30:12;;;;;;;0.98;0.80;;;23.40;97.10;;;;;;5039740;28;20097;-80
2022/07/02 08:32:39;;;;;;;1.92;0.90;;;23.30;94.00;;;;;;5040016;28;20045;-79
2022/07/02 08:35:05;;;;;;;1.67;0.73;;;23.50;95.40;;;;;;5039789;28;20041;-81
2022/07/02 08:37:31;;;;;;;1.10;0.75;;;23.40;95.40;;;;;;5039629;28;20041;-82
2022/07/02 08:39:57;;;;;;;2.08;0.68;;;23.60;95.60;;;;;;5040289;28;20052;-80
2022/07/02 08:42:32;;;;;;;0.95;0.73;;;23.60;93.60;;;;;;5038475;28;20038;-83
2022/07/02 08:45:02;;;;;;;0.70;0.70;;;23.80;92.70;;;;;;5040821;28;20052;-81
2022/07/02 08:47:29;;;;;;;0.85;0.85;;;23.80;90.60;;;;;;5040427;28;20061;-83
2022/07/02 08:49:56;;;;;;;3.08;0.70;;;24.10;91.70;;;;;;5039868;28;20034;-78
2022/07/02 08:52:23;;;;;;;1.23;0.95;;;24.30;89.60;;;;;;5035889;28;20034;-77
2022/07/02 08:54:50;;;;;;;0.70;0.70;;;24.30;88.40;;;;;;5038515;28;20092;-81
2022/07/02 08:57:16;;;;;;;1.08;0.80;;;24.60;83.20;;;;;;5039771;28;20483;-76
2022/07/02 08:59:42;;;;;;;1.70;0.90;;;24.40;84.80;;;;;;5038038;28;20046;-76
2022/07/02 09:02:13;;;;;;;2.03;0.85;;;24.50;85.50;;;;;;5036505;28;20165;-75
2022/07/02 09:04:43;;;;;;;1.55;0.90;;;24.90;85.30;;;;;;5034969;28;20038;-74
2022/07/02 09:07:12;;;;;;;2.10;0.77;;;24.90;82.00;;;;;;5036419;28;20820;-73
2022/07/02 09:09:41;;;;;;;2.45;1.00;;;25.00;84.30;;;;;;5036297;28;20196;-74
2022/07/02 09:12:12;;;;;;;1.27;0.80;;;25.10;80.30;;;;;;5036255;28;20022;-75
2022/07/02 09:14:38;;;;;;;1.90;0.90;;;25.10;79.00;;;;;;5035608;28;20049;-79
2022/07/02 09:17:06;;;;;;;0.70;0.70;;;25.40;80.30;;;;;;5037374;28;20526;-73
2022/07/02 09:19:33;;;;;;;0.80;0.80;;;25.60;78.60;;;;;;5034938;28;20042;-74
2022/07/02 09:21:59;;;;;;;2.97;0.90;;;25.40;74.00;;;;;;5036031;28;20026;-74
2022/07/02 09:24:35;;;;;;;1.27;0.90;;;25.40;74.20;;;;;;5036022;28;20038;-78
2022/07/02 09:27:27;;;;;;;2.17;0.80;;;25.40;78.40;;;;;;5021467;28;20146;-75
2022/07/02 09:29:53;;;;;;;1.23;0.70;;;25.60;74.90;;;;;;5006151;28;20054;-75
2022/07/02 09:32:20;;;;;;;2.85;0.90;;;25.40;73.80;;;;;;5012254;28;20060;-74
2022/07/02 09:34:49;;;;;;;1.25;0.82;;;25.50;73.90;;;;;;5009611;28;20172;-75
2022/07/02 09:37:25;;;;;;;1.77;0.82;;;25.50;71.90;;;;;;5010413;28;20026;-74
2022/07/02 09:39:52;;;;;;;4.57;1.15;;;25.40;74.00;;;;;;5022741;28;20038;-75
2022/07/02 09:42:26;;;;;;;1.00;0.70;;;25.50;68.30;;;;;;5017663;28;20038;-81
2022/07/02 09:44:52;;;;;;;0.90;0.60;;;25.60;69.70;;;;;;5013890;28;20065;-74
2022/07/02 09:47:31;;;;;;;1.30;0.73;;;25.90;71.20;;;;;;5010096;28;20497;-74
2022/07/02 09:49:57;;;;;;;0.88;0.60;;;25.90;69.40;;;;;;5016565;28;20042;-75
2022/07/02 09:52:22;;;;;;;0.95;0.60;;;26.10;71.00;;;;;;5014105;28;20041;-77
2022/07/02 09:54:48;;;;;;;1.55;1.00;;;26.10;70.90;;;;;;5015705;28;20448;-74
2022/07/02 09:57:13;;;;;;;1.30;0.65;;;26.30;73.00;;;;;;5015912;28;20038;-74
2022/07/02 09:59:40;;;;;;;3.42;0.80;;;26.60;69.40;;;;;;5016116;28;20069;-78
2022/07/02 10:02:17;;;;;;;0.80;0.70;;;26.30;69.40;;;;;;5020923;28;20057;-80
2022/07/02 10:04:44;;;;;;;3.00;0.80;;;26.30;73.40;;;;;;5034171;28;20407;-74
2022/07/02 10:07:10;;;;;;;0.70;0.60;;;26.30;70.20;;;;;;5020594;28;20045;-80
2022/07/02 10:09:39;;;;;;;4.60;1.30;;;26.20;76.80;;;;;;5014750;28;20034;-78
2022/07/02 10:12:07;;;;;;;0.77;0.70;;;26.60;75.70;;;;;;5014704;28;20583;-74
2022/07/02 10:14:36;;;;;;;3.50;1.63;;;26.70;69.80;;;;;;5015603;28;20060;-75
2022/07/02 10:17:02;;;;;;;0.75;0.55;;;26.80;72.70;;;;;;5029709;22;20560;-73
2022/07/02 10:19:30;;;;;;;1.30;0.60;;;27.00;71.10;;;;;;5015177;28;20046;-73
2022/07/02 10:21:58;;;;;;;0.95;0.80;;;27.10;73.20;;;;;;5025332;28;20041;-74
2022/07/02 10:24:25;;;;;;;0.80;0.63;;;27.50;70.50;;;;;;5034884;28;20124;-73
2022/07/02 10:26:52;;;;;;;0.95;0.73;;;27.60;70.70;;;;;;5034811;28;20034;-73
2022/07/02 10:29:18;;;;;;;5.13;0.90;;;27.50;67.00;;;;;;5034984;28;20132;-72
2022/07/02 10:31:52;;;;;;;2.28;0.70;;;27.40;66.20;;;;;;5034976;28;20104;-72
2022/07/02 10:34:55;;;;;;;1.30;0.65;;;27.60;70.20;;;;;;5033505;28;20067;-72
2022/07/02 10:37:21;;;;;;;1.60;0.70;;;27.80;64.90;;;;;;5034654;28;20041;-72
2022/07/02 10:39:47;;;;;;;2.20;0.70;;;27.80;64.80;;;;;;5035460;28;20081;-72
2022/07/02 10:42:12;;;;;;;0.80;0.70;;;28.00;65.50;;;;;;5035651;28;20038;-72
2022/07/02 10:44:42;;;;;;;2.78;0.77;;;28.10;64.60;;;;;;5035644;28;20049;-72
2022/07/02 10:47:26;;;;;;;1.75;0.70;;;28.10;65.10;;;;;;5034953;28;20022;-72
2022/07/02 10:49:59;;;;;;;1.25;0.80;;;28.30;63.70;;;;;;5035676;28;20498;-72
2022/07/02 10:52:48;;;;;;;0.98;0.65;;;28.40;67.70;;;;;;5036784;28;20076;-72
2022/07/02 10:55:27;;;;;;;0.77;0.68;;;28.20;69.70;;;;;;5036530;28;20080;-72
2022/07/02 10:58:01;;;;;;;2.05;0.80;;;28.10;66.30;;;;;;5035754;28;20034;-71
2022/07/02 11:00:38;;;;;;;1.63;0.70;;;28.10;66.20;;;;;;5035405;28;20064;-72
2022/07/02 11:03:24;;;;;;;2.00;0.70;;;28.50;65.10;;;;;;5035889;28;20068;-72
2022/07/02 11:06:04;;;;;;;1.02;0.60;;;27.90;65.80;;;;;;5035155;28;20064;-72
2022/07/02 11:08:55;;;;;;;0.75;0.70;;;28.20;65.60;;;;;;5035481;28;20030;-72
2022/07/02 11:11:35;;;;;;;1.77;0.80;;;28.50;65.10;;;;;;5035474;28;20037;-72
2022/07/02 11:14:06;;;;;;;1.40;0.60;;;28.70;61.70;;;;;;5035769;28;20030;-72
2022/07/02 11:16:40;;;;;;;1.73;0.80;;;28.30;66.30;;;;;;5035686;28;20034;-72
2022/07/02 11:19:20;;;;;;;3.58;0.88;;;27.90;66.50;;;;;;5035908;28;20166;-72
2022/07/02 11:21:47;;;;;;;1.17;0.70;;;27.70;67.10;;;;;;5035865;28;20032;-72
2022/07/02 11:24:18;;;;;;;1.67;0.70;;;27.70;68.90;;;;;;5035265;28;20113;-72
2022/07/02 11:26:45;;;;;;;1.40;0.80;;;28.20;62.00;;;;;;5040764;28;20042;-72
2022/07/02 11:29:11;;;;;;;12.95;2.00;;;28.40;62.80;;;;;;5042281;28;20025;-73
2022/07/02 11:31:51;;;;;;;2.35;0.73;;;28.60;66.60;;;;;;5041923;28;20090;-72
2022/07/02 11:34:21;;;;;;;0.88;0.77;;;28.90;62.20;;;;;;5041292;28;20120;-72
2022/07/02 11:36:46;;;;;;;1.20;0.60;;;28.90;61.80;;;;;;5041026;28;20029;-72
2022/07/02 11:39:15;;;;;;;1.27;0.60;;;29.10;64.00;;;;;;5041072;28;20040;-72
2022/07/02 11:41:41;;;;;;;2.00;0.70;;;29.20;58.30;;;;;;5040985;28;20037;-72
2022/07/02 11:44:18;;;;;;;1.58;0.80;;;29.30;60.90;;;;;;5042083;28;20033;-72
2022/07/02 11:46:48;;;;;;;4.68;0.68;;;29.20;59.40;;;;;;5041258;28;20449;-72
2022/07/02 11:49:22;;;;;;;0.70;0.70;;;29.70;61.30;;;;;;5041068;28;20034;-72
2022/07/02 11:51:49;;;;;;;1.35;0.70;;;29.30;61.70;;;;;;5039098;28;20038;-72
2022/07/02 11:54:15;;;;;;;1.05;0.70;;;29.20;62.60;;;;;;5040592;28;20108;-73
2022/07/02 11:56:43;;;;;;;2.03;0.70;;;29.40;64.70;;;;;;5039895;28;20038;-73
2022/07/02 11:59:11;;;;;;;1.23;0.80;;;29.50;57.00;;;;;;5040322;28;20030;-72
2022/07/02 12:01:39;;;;;;;0.63;0.60;;;29.50;62.60;;;;;;5040528;28;20096;-72
2022/07/02 12:04:08;;;;;;;0.73;0.70;;;29.30;59.80;;;;;;5040493;28;20033;-72
2022/07/02 12:06:57;;;;;;;1.55;0.80;;;29.60;59.80;;;;;;5039818;28;20037;-73
2022/07/02 12:09:24;;;;;;;2.85;0.60;;;30.20;58.90;;;;;;5040424;28;20053;-73
2022/07/02 12:11:51;;;;;;;1.30;0.60;;;30.70;57.70;;;;;;5040217;28;20034;-73
2022/07/02 12:14:27;;;;;;;1.08;0.68;;;30.60;57.30;;;;;;5040374;28;20030;-73
2022/07/02 12:16:52;;;;;;;0.85;0.70;;;30.40;57.70;;;;;;5039403;28;20050;-72
2022/07/02 12:19:18;;;;;;;1.67;0.60;;;30.00;59.70;;;;;;5040384;28;20046;-73
2022/07/02 12:21:46;;;;;;;1.00;0.70;;;30.10;58.00;;;;;;5040332;28;20480;-72
2022/07/02 12:24:19;;;;;;;1.75;0.70;;;30.20;57.30;;;;;;5040004;28;20030;-72
2022/07/02 12:26:50;;;;;;;0.90;0.70;;;30.10;58.20;;;;;;5038360;28;20037;-73
2022/07/02 12:32:15;;;;;;;8.95;0.98;;;30.50;63.00;;;;;;5040601;28;20056;-73
2022/07/02 12:34:49;;;;;;;3.00;0.85;;;30.60;58.80;;;;;;5038498;28;20030;-73
2022/07/02 12:37:35;;;;;;;2.17;0.77;;;30.70;55.90;;;;;;5036809;28;20033;-73
2022/07/02 12:40:03;;;;;;;1.00;0.60;;;30.60;58.20;;;;;;5036935;28;20041;-72
2022/07/02 12:42:33;;;;;;;4.50;0.70;;;30.70;56.80;;;;;;5036775;28;20484;-72
2022/07/02 12:45:01;;;;;;;0.65;0.60;;;30.90;57.60;;;;;;5036268;28;20529;-73
2022/07/02 12:47:38;;;;;;;1.63;0.70;;;30.50;57.10;;;;;;5036136;28;20129;-72
2022/07/02 12:50:14;;;;;;;0.50;0.50;;;30.30;56.80;;;;;;5036696;28;20109;-72
2022/07/02 12:52:55;;;;;;;0.68;0.57;;;30.10;61.40;;;;;;5036544;28;20123;-72
2022/07/02 12:55:30;;;;;;;0.85;0.73;;;30.60;56.50;;;;;;5037041;28;20033;-72
2022/07/02 12:57:59;;;;;;;2.15;0.80;;;30.40;58.00;;;;;;5036731;28;20041;-73
2022/07/02 13:00:26;;;;;;;1.40;0.60;;;30.50;58.40;;;;;;5036323;28;20041;-73
2022/07/02 13:03:03;;;;;;;1.00;0.70;;;30.60;63.50;;;;;;5036280;28;20030;-73
2022/07/02 13:05:30;;;;;;;1.23;0.70;;;30.70;58.80;;;;;;5036176;28;20029;-72
2022/07/02 13:07:56;;;;;;;1.63;0.70;;;30.80;55.40;;;;;;5035996;28;20038;-73
2022/07/02 13:10:23;;;;;;;1.80;0.80;;;30.90;58.20;;;;;;5036407;28;20033;-72
2022/07/02 13:12:48;;;;;;;1.25;0.70;;;30.90;59.20;;;;;;5034683;28;20038;-73
2022/07/02 13:15:14;;;;;;;2.10;0.90;;;31.20;54.30;;;;;;5035345;28;20046;-73
2022/07/02 13:17:40;;;;;;;1.10;0.70;;;31.10;57.70;;;;;;5035992;28;20562;-72
2022/07/02 13:20:06;;;;;;;1.83;0.77;;;31.00;53.40;;;;;;5036152;28;20038;-72
2022/07/02 13:22:32;;;;;;;1.85;0.77;;;31.10;54.00;;;;;;5035757;28;20487;-72
2022/07/02 13:24:57;;;;;;;1.80;1.00;;;31.50;57.00;;;;;;5036007;28;20041;-72
2022/07/02 13:27:23;;;;;;;1.52;0.80;;;32.00;53.20;;;;;;5035801;28;20030;-73
2022/07/02 13:29:54;;;;;;;2.35;1.00;;;31.90;52.20;;;;;;5036196;28;20353;-73
2022/07/02 13:32:19;;;;;;;2.80;1.20;;;32.00;55.20;;;;;;5035891;28;20435;-73
2022/07/02 13:34:45;;;;;;;2.03;1.80;;;31.70;51.20;;;;;;5035818;28;20077;-73
2022/07/02 13:37:12;;;;;;;3.03;1.77;;;32.30;52.70;;;;;;5035367;28;20034;-72
2022/07/02 13:39:38;;;;;;;1.73;1.30;;;33.40;49.30;;;;;;5035816;28;20038;-73
2022/07/02 13:42:03;;;;;;;1.95;0.63;;;33.80;49.20;;;;;;5035781;28;20434;-73
2022/07/02 13:44:31;;;;;;;1.73;0.80;;;33.40;51.40;;;;;;5035861;28;20165;-73
2022/07/02 13:46:57;;;;;;;5.00;2.88;;;33.70;50.40;;;;;;5035222;28;20125;-73
2022/07/02 13:49:22;;;;;;;1.92;1.40;;;33.30;51.00;;;;;;5035197;28;20105;-73
2022/07/02 13:51:48;;;;;;;2.97;0.80;;;33.30;49.10;;;;;;5035560;28;20030;-73
2022/07/02 13:54:14;;;;;;;1.67;1.13;;;34.30;55.60;;;;;;5035546;28;20550;-73
2022/07/02 13:56:39;;;;;;;4.47;2.22;;;35.10;48.00;;;;;;5035124;28;20038;-73
2022/07/02 13:59:05;;;;;;;2.15;1.58;;;35.00;47.20;;;;;;5035498;28;20589;-73
2022/07/02 14:01:31;;;;;;;1.42;1.13;;;35.40;47.30;;;;;;5035545;28;20049;-73
2022/07/02 14:03:58;;;;;;;2.58;1.35;;;36.30;46.00;;;;;;5035529;28;20033;-73
2022/07/02 14:06:24;;;;;;;1.50;1.40;;;36.60;45.40;;;;;;5033016;28;20062;-73
2022/07/02 14:08:49;;;;;;;1.88;1.20;;;36.60;46.60;;;;;;5035438;28;20533;-74
2022/07/02 14:11:15;;;;;;;2.78;1.77;;;36.70;46.60;;;;;;5035359;28;20113;-74
2022/07/02 14:13:41;;;;;;;1.70;1.10;;;36.80;44.20;;;;;;5035524;28;20043;-73
2022/07/02 14:16:07;;;;;;;2.22;1.80;;;36.30;43.00;;;;;;5034729;28;20459;-73
2022/07/02 14:18:33;;;;;;;0.90;0.90;;;35.70;43.80;;;;;;5035294;28;20034;-73
2022/07/02 14:21:00;;;;;;;1.55;0.75;;;36.20;43.10;;;;;;5035113;28;20121;-73
2022/07/02 14:23:27;;;;;;;2.50;1.95;;;37.10;43.70;;;;;;5035066;28;20085;-74
2022/07/02 14:25:52;;;;;;;4.47;2.10;;;36.70;43.20;;;;;;5034881;28;20092;-74
2022/07/02 14:28:19;;;;;;;2.15;1.77;;;36.70;42.40;;;;;;5034890;28;20049;-73
2022/07/02 14:30:45;;;;;;;1.20;1.10;;;36.60;41.50;;;;;;5034946;28;20499;-73
2022/07/02 14:33:11;;;;;;;4.60;1.23;;;37.60;39.80;;;;;;5035055;28;20499;-74
2022/07/02 14:35:36;;;;;;;2.83;1.23;;;37.50;41.70;;;;;;5034449;28;20115;-74
2022/07/02 14:38:02;;;;;;;4.32;1.70;;;37.40;44.20;;;;;;5033147;28;20030;-74
2022/07/02 14:40:28;;;;;;;1.85;1.40;;;38.10;40.60;;;;;;5034635;28;20439;-74
2022/07/02 14:42:54;;;;;;;1.42;1.10;;;37.90;44.50;;;;;;5035137;28;20033;-74
2022/07/02 14:45:20;;;;;;;1.30;1.20;;;38.90;42.20;;;;;;5034409;28;20488;-74
2022/07/02 14:47:45;;;;;;;2.35;1.30;;;38.70;40.00;;;;;;5034470;28;20034;-74
2022/07/02 14:50:11;;;;;;;1.08;1.05;;;39.40;40.10;;;;;;5034468;28;20054;-74
2022/07/02 14:52:36;;;;;;;1.20;1.10;;;40.00;41.70;;;;;;5034790;28;20036;-74
2022/07/02 14:55:03;;;;;;;2.25;1.20;;;40.10;38.40;;;;;;5034490;28;20092;-74
2022/07/02 14:57:28;;;;;;;1.55;1.10;;;40.10;37.90;;;;;;5034387;28;20482;-74
2022/07/02 14:59:54;;;;;;;2.55;1.42;;;39.60;37.70;;;;;;5033764;28;20045;-74
2022/07/02 15:02:19;;;;;;;2.35;1.30;;;39.90;40.70;;;;;;5034582;28;20041;-74
2022/07/02 15:04:45;;;;;;;1.08;0.93;;;39.70;36.90;;;;;;5034152;28;20080;-74
2022/07/02 15:07:11;;;;;;;1.17;1.00;;;39.50;38.50;;;;;;5034080;28;20084;-74
2022/07/02 15:09:36;;;;;;;1.45;1.00;;;39.90;40.90;;;;;;5034380;28;20091;-74
2022/07/02 15:12:03;;;;;;;1.40;1.00;;;40.70;39.10;;;;;;5032904;28;20496;-74
2022/07/02 15:17:12;;;;;;;1.20;1.00;;;40.80;36.10;;;;;;5033782;28;20042;-74
2022/07/02 15:19:38;;;;;;;1.52;1.00;;;41.00;36.20;;;;;;5034281;28;20042;-74
2022/07/02 15:22:06;;;;;;;1.35;0.90;;;40.80;36.10;;;;;;5034347;28;20052;-74
2022/07/02 15:24:44;;;;;;;0.90;0.80;;;39.80;36.90;;;;;;5032668;28;20037;-74
2022/07/02 15:27:12;;;;;;;0.95;0.90;;;39.90;36.10;;;;;;5033778;28;20455;-73
2022/07/02 15:29:38;;;;;;;0.93;0.80;;;40.00;35.70;;;;;;5033824;28;20081;-74
2022/07/02 15:32:07;;;;;;;0.90;0.90;;;40.00;37.00;;;;;;5034258;28;20034;-74
2022/07/02 15:34:37;;;;;;;1.27;0.98;;;39.70;38.20;;;;;;5033936;28;20042;-73
2022/07/02 15:37:05;;;;;;;1.42;1.02;;;40.20;37.10;;;;;;5033561;28;20562;-74
2022/07/02 15:39:31;;;;;;;1.55;0.93;;;40.40;36.80;;;;;;5034029;28;20042;-74
2022/07/02 15:41:58;;;;;;;1.98;1.00;;;41.30;36.90;;;;;;5034153;28;20026;-73
2022/07/02 15:44:28;;;;;;;1.02;0.93;;;40.70;37.50;;;;;;5033963;28;20045;-75
2022/07/02 15:46:55;;;;;;;1.38;1.20;;;40.30;36.50;;;;;;5033258;28;20087;-74
2022/07/02 15:49:21;;;;;;;2.85;1.58;;;41.30;37.30;;;;;;5034019;28;20034;-74
2022/07/02 15:51:51;;;;;;;3.05;2.10;;;42.40;35.60;;;;;;5033848;28;20034;-74
2022/07/02 15:54:20;;;;;;;1.88;1.10;;;43.10;34.60;;;;;;5032454;28;20037;-73
2022/07/02 15:56:48;;;;;;;1.60;1.50;;;41.90;35.20;;;;;;5033059;28;20037;-74
2022/07/02 15:59:15;;;;;;;1.15;1.10;;;41.00;36.40;;;;;;5033558;28;20033;-73
2022/07/02 16:01:41;;;;;;;1.20;1.10;;;39.40;36.40;;;;;;5033832;28;20037;-73
2022/07/02 16:04:11;;;;;;;1.15;1.05;;;39.70;37.40;;;;;;5033620;28;20577;-74
2022/07/02 16:06:37;;;;;;;1.08;1.08;;;41.10;38.50;;;;;;5033026;28;20514;-73
2022/07/02 16:09:03;;;;;;;2.45;1.10;;;41.60;36.60;;;;;;5033852;28;20034;-74
2022/07/02 16:11:30;;;;;;;2.05;1.13;;;42.80;35.60;;;;;;5034173;28;20034;-74
2022/07/02 16:13:56;;;;;;;1.10;1.00;;;41.70;35.00;;;;;;5037126;28;20088;-73
2022/07/02 16:16:23;;;;;;;2.53;1.00;;;41.60;36.40;;;;;;5036710;28;20460;-73
2022/07/02 16:18:50;;;;;;;4.93;0.85;;;41.80;35.60;;;;;;5037119;28;20057;-74
2022/07/02 16:21:16;;;;;;;1.40;1.20;;;41.30;36.00;;;;;;5036892;28;20105;-74
2022/07/02 16:23:42;;;;;;;1.33;1.10;;;40.80;35.00;;;;;;5036902;28;20117;-73
2022/07/02 16:26:09;;;;;;;1.83;1.00;;;40.70;37.50;;;;;;5036430;28;20030;-73
2022/07/02 16:28:35;;;;;;;3.47;0.90;;;40.00;35.80;;;;;;5037013;28;20037;-74
2022/07/02 16:31:01;;;;;;;2.45;0.90;;;38.90;36.10;;;;;;5037020;28;20434;-73
2022/07/02 16:33:44;;;;;;;4.03;3.13;;;38.40;37.80;;;;;;5036988;28;20134;-73
2022/07/02 16:36:12;;;;;;;1.98;1.40;;;36.50;40.30;;;;;;5036438;28;20069;-74
2022/07/02 16:38:41;;;;;;;1.27;1.17;;;34.70;40.40;;;;;;5035271;28;20034;-73
2022/07/02 16:41:08;;;;;;;1.85;1.25;;;33.00;43.90;;;;;;5036581;28;20096;-73
2022/07/02 16:43:38;;;;;;;1.60;1.17;;;32.20;45.70;;;;;;5036568;28;20040;-73
2022/07/02 16:46:10;;;;;;;2.60;1.33;;;31.10;47.30;;;;;;5035999;28;20116;-73
2022/07/02 16:48:47;;;;;;;1.52;0.90;;;30.60;49.40;;;;;;5036556;28;20030;-73
2022/07/02 16:51:15;;;;;;;1.75;0.80;;;30.10;52.40;;;;;;5036342;28;20507;-73
2022/07/02 16:53:41;;;;;;;1.38;0.82;;;29.40;52.30;;;;;;5035005;28;20061;-72
2022/07/02 16:56:10;;;;;;;1.02;0.80;;;29.00;51.10;;;;;;5036178;28;20065;-72
2022/07/02 16:58:36;;;;;;;1.00;0.90;;;28.60;52.10;;;;;;5036171;28;20084;-73